createdAt,value
2022-08-22T00:01:10.839Z,7.57
2022-08-22T00:02:42.776Z,8.67
2022-08-22T00:02:52.802Z,7.80
2022-08-22T00:02:54.176Z,6.65
2022-08-22T00:06:28.125Z,6.22
2022-08-22T00:11:47.581Z,3.97
2022-08-22T00:17:02.045Z,8.27
2022-08-22T00:22:18.727Z,7.55
2022-08-22T00:27:33.969Z,6.25
2022-08-22T00:32:46.910Z,5.95
2022-08-22T00:38:04.561Z,5.00
2022-08-22T00:44:19.179Z,5.15
2022-08-22T00:49:51.174Z,6.07
2022-08-22T00:55:41.778Z,8.38
2022-08-22T01:00:54.109Z,8.30
2022-08-22T01:06:17.727Z,5.40
2022-08-22T01:11:53.154Z,7.93
2022-08-22T01:17:48.837Z,4.40
2022-08-22T01:23:53.408Z,6.47
2022-08-22T01:29:55.506Z,5.95
2022-08-22T01:35:28.898Z,5.88
2022-08-22T01:41:42.541Z,5.53
2022-08-22T01:46:58.901Z,7.25
2022-08-22T01:52:13.886Z,3.90
2022-08-22T01:57:19.383Z,5.80
2022-08-22T02:02:47.620Z,3.65
2022-08-22T02:08:02.307Z,4.95
2022-08-22T02:13:27.335Z,7.18
2022-08-22T02:18:52.019Z,5.18
2022-08-22T02:24:04.868Z,7.57
2022-08-22T02:29:14.969Z,6.63
2022-08-22T02:34:39.723Z,7.80
2022-08-22T02:39:54.943Z,10.23
2022-08-22T02:45:17.059Z,5.15
2022-08-22T02:50:38.018Z,6.50
2022-08-22T02:55:54.700Z,5.68
2022-08-22T03:01:40.754Z,7.03
2022-08-22T03:07:01.200Z,7.15
2022-08-22T03:12:20.248Z,4.95
2022-08-22T03:17:34.870Z,5.97
2022-08-22T03:22:47.673Z,6.15
2022-08-22T03:28:00.578Z,5.45
2022-08-22T03:33:19.872Z,4.90
2022-08-22T03:38:30.242Z,4.97
2022-08-22T03:44:12.114Z,6.35
2022-08-22T03:50:32.801Z,8.18
2022-08-22T03:56:17.979Z,6.65
2022-08-22T04:02:03.239Z,5.10
2022-08-22T04:08:15.031Z,6.50
2022-08-22T04:19:58.597Z,6.72
2022-08-22T04:25:08.340Z,5.22
2022-08-22T04:30:25.709Z,8.43
2022-08-22T04:40:45.549Z,7.60
2022-08-22T04:45:56.822Z,6.10
2022-08-22T04:51:09.767Z,5.68
2022-08-22T04:56:25.079Z,6.25
2022-08-22T05:01:47.202Z,8.23
2022-08-22T05:06:58.608Z,4.90
2022-08-22T05:12:11.978Z,4.82
2022-08-22T05:17:22.880Z,5.35
2022-08-22T05:22:37.977Z,5.95
2022-08-22T05:27:46.774Z,6.65
2022-08-22T05:32:57.280Z,6.53
2022-08-22T05:38:04.810Z,4.68
2022-08-22T05:43:13.776Z,5.50
2022-08-22T05:48:22.812Z,5.72
2022-08-22T05:53:37.477Z,8.07
2022-08-22T05:58:52.961Z,6.10
2022-08-22T06:04:17.402Z,7.53
2022-08-22T06:09:40.426Z,6.03
2022-08-22T06:14:51.103Z,6.95
2022-08-22T06:19:56.635Z,6.72
2022-08-22T06:25:10.289Z,5.85
2022-08-22T06:30:18.066Z,6.53
2022-08-22T06:35:27.903Z,6.50
2022-08-22T06:40:33.115Z,6.43
2022-08-22T06:45:37.283Z,6.85
2022-08-22T06:50:45.952Z,9.82
2022-08-22T06:55:55.829Z,6.53
2022-08-22T07:01:11.521Z,9.40
2022-08-22T07:06:20.970Z,7.03
2022-08-22T07:11:31.677Z,9.30
2022-08-22T07:16:42.966Z,7.80
2022-08-22T07:21:49.586Z,10.95
2022-08-22T07:27:12.664Z,5.83
2022-08-22T07:32:29.103Z,7.43
2022-08-22T07:37:53.123Z,8.52
2022-08-22T07:43:08.759Z,10.50
2022-08-22T07:48:26.342Z,7.70
2022-08-22T07:53:41.070Z,7.65
2022-08-22T07:58:53.280Z,6.20
2022-08-22T08:04:02.019Z,6.55
2022-08-22T08:09:06.714Z,6.10
2022-08-22T08:14:16.790Z,9.40
2022-08-22T08:19:22.615Z,7.50
2022-08-22T08:24:40.640Z,7.43
2022-08-22T08:29:56.493Z,6.70
2022-08-22T08:35:01.230Z,5.93
2022-08-22T08:45:48.228Z,5.20
2022-08-22T08:51:21.766Z,7.40
2022-08-22T08:56:38.954Z,7.57
2022-08-22T09:02:23.736Z,6.07
2022-08-22T09:08:39.353Z,6.53
2022-08-22T09:14:00.614Z,6.18
2022-08-22T09:43:07.325Z,6.65
2022-08-22T09:48:34.660Z,8.55
2022-08-22T09:54:11.103Z,13.25
2022-08-22T09:59:28.729Z,10.93
2022-08-22T10:04:48.007Z,7.30
2022-08-22T10:10:07.611Z,11.43
2022-08-22T10:15:25.009Z,7.75
2022-08-22T10:20:35.530Z,5.70
2022-08-22T10:25:44.902Z,6.97
2022-08-22T10:31:20.958Z,6.07
2022-08-22T10:36:39.810Z,7.88
2022-08-22T10:42:19.606Z,16.65
2022-08-22T10:47:42.735Z,19.00
2022-08-22T10:52:50.490Z,11.50
2022-08-22T10:58:09.039Z,12.98
2022-08-22T11:03:23.549Z,19.48
2022-08-22T11:08:59.809Z,26.33
2022-08-22T11:14:56.597Z,10.75
2022-08-22T11:20:21.328Z,8.32
2022-08-22T11:25:44.871Z,9.48
2022-08-22T11:31:11.085Z,10.85
2022-08-22T11:36:36.004Z,7.28
2022-08-22T11:41:52.558Z,9.10
2022-08-22T11:46:58.403Z,7.28
2022-08-22T11:52:25.464Z,10.40
2022-08-22T11:57:37.393Z,8.32
2022-08-22T12:03:23.300Z,8.35
2022-08-22T12:09:25.091Z,7.00
2022-08-22T12:14:39.509Z,9.23
2022-08-22T12:20:16.364Z,5.40
2022-08-22T12:25:49.734Z,6.75
2022-08-22T12:31:09.845Z,6.18
2022-08-22T12:36:46.279Z,6.53
2022-08-22T12:42:23.219Z,5.40
2022-08-22T12:47:49.200Z,5.10
2022-08-22T12:53:26.405Z,6.47
2022-08-22T12:59:15.122Z,5.22
2022-08-22T13:04:33.003Z,6.70
2022-08-22T13:09:43.382Z,7.13
2022-08-22T13:14:54.853Z,5.78
2022-08-22T13:20:10.903Z,5.53
2022-08-22T13:25:26.931Z,4.37
2022-08-22T13:30:39.200Z,5.80
2022-08-22T13:35:51.883Z,5.72
2022-08-22T13:40:59.464Z,4.57
2022-08-22T13:46:10.993Z,6.32
2022-08-22T13:51:25.599Z,6.65
2022-08-22T13:56:50.561Z,4.30
2022-08-22T14:02:01.832Z,6.55
2022-08-22T14:07:33.414Z,4.57
2022-08-22T14:13:19.386Z,5.72
2022-08-22T14:18:35.914Z,5.33
2022-08-22T14:23:39.725Z,9.13
2022-08-22T14:28:45.252Z,5.32
2022-08-22T14:33:55.697Z,6.65
2022-08-22T14:39:11.264Z,9.60
2022-08-22T14:44:24.190Z,8.13
2022-08-22T14:49:38.233Z,7.00
2022-08-22T14:54:42.679Z,8.65
2022-08-22T14:59:52.163Z,7.88
2022-08-22T15:05:02.150Z,6.03
2022-08-22T15:10:22.194Z,6.63
2022-08-22T15:15:49.458Z,7.77
2022-08-22T15:21:10.084Z,6.30
2022-08-22T15:26:26.066Z,5.90
2022-08-22T15:31:32.503Z,6.43
2022-08-22T15:36:43.705Z,6.53
2022-08-22T15:41:48.911Z,8.02
2022-08-22T15:47:23.723Z,15.33
2022-08-22T15:52:33.698Z,15.35
2022-08-22T15:57:40.374Z,11.73
2022-08-22T16:03:00.603Z,7.43
2022-08-22T16:08:12.181Z,13.20
2022-08-22T16:13:42.747Z,10.65
2022-08-22T16:19:22.125Z,8.90
2022-08-22T16:25:02.366Z,6.68
2022-08-22T16:30:16.974Z,7.63
2022-08-22T16:36:42.765Z,7.03
2022-08-22T16:41:49.370Z,7.60
2022-08-22T16:46:56.317Z,6.83
2022-08-22T16:52:55.743Z,6.00
2022-08-22T16:58:12.093Z,5.65
2022-08-22T17:03:27.694Z,4.37
2022-08-22T17:08:53.901Z,4.78
2022-08-22T17:14:36.127Z,7.27
2022-08-22T17:20:15.713Z,6.10
2022-08-22T17:25:31.828Z,6.90
2022-08-22T17:30:51.081Z,4.97
2022-08-22T17:36:26.271Z,5.32
2022-08-22T17:41:39.550Z,8.67
2022-08-22T17:46:54.851Z,5.55
2022-08-22T17:52:13.477Z,5.95
2022-08-22T17:57:30.682Z,5.65
2022-08-22T18:02:44.006Z,12.65
2022-08-22T18:07:59.281Z,15.73
2022-08-22T18:13:11.462Z,13.52
2022-08-22T18:18:31.264Z,11.95
2022-08-22T18:23:42.802Z,13.35
2022-08-22T18:28:56.433Z,10.02
2022-08-22T18:34:11.093Z,11.75
2022-08-22T18:39:23.466Z,10.82
2022-08-22T18:44:31.814Z,10.38
2022-08-22T18:49:54.021Z,7.65
2022-08-22T18:55:29.810Z,8.52
2022-08-22T19:01:05.551Z,8.02
2022-08-22T19:06:58.941Z,8.05
2022-08-22T19:12:27.251Z,6.80
2022-08-22T19:18:05.851Z,7.63
2022-08-22T19:23:49.551Z,8.10
2022-08-22T19:28:59.378Z,7.13
2022-08-22T19:34:40.826Z,6.18
2022-08-22T19:39:55.780Z,5.90
2022-08-22T19:45:20.065Z,7.60
2022-08-22T19:50:34.995Z,6.43
2022-08-22T19:56:03.544Z,6.88
2022-08-22T20:01:37.463Z,6.13
2022-08-22T20:06:56.198Z,7.10
2022-08-22T20:12:20.128Z,8.00
2022-08-22T20:17:43.749Z,6.35
2022-08-22T20:22:54.252Z,5.43
2022-08-22T20:28:08.608Z,5.53
2022-08-22T20:33:18.579Z,8.23
2022-08-22T20:38:27.626Z,5.20
2022-08-22T20:43:40.084Z,4.07
2022-08-22T20:48:49.100Z,4.85
2022-08-22T20:53:58.343Z,5.20
2022-08-22T20:59:36.085Z,6.03
2022-08-22T21:04:50.480Z,4.72
2022-08-22T21:10:22.878Z,5.88
2022-08-22T21:15:35.108Z,5.55
2022-08-22T21:20:40.260Z,5.88
2022-08-22T21:26:00.278Z,6.45
2022-08-22T21:31:16.403Z,14.30
2022-08-22T21:36:25.717Z,14.60
2022-08-22T21:41:35.739Z,10.60
2022-08-22T21:46:40.837Z,10.60
2022-08-22T21:51:48.248Z,7.93
2022-08-22T21:56:54.006Z,19.08
2022-08-22T22:02:36.648Z,27.65
2022-08-22T22:07:43.805Z,26.13
2022-08-22T22:12:51.912Z,38.50
2022-08-22T22:17:57.707Z,32.40
2022-08-22T22:23:02.425Z,20.87
2022-08-22T22:28:12.855Z,16.98
2022-08-22T22:33:18.998Z,18.92
2022-08-22T22:38:24.409Z,17.75
2022-08-22T22:43:28.512Z,12.15
2022-08-22T22:48:34.097Z,16.60
2022-08-22T22:53:40.374Z,20.08
2022-08-22T22:58:47.517Z,14.27
2022-08-22T23:03:57.986Z,12.75
2022-08-22T23:09:01.649Z,25.77
2022-08-22T23:14:05.464Z,10.23
2022-08-22T23:19:13.286Z,15.35
2022-08-22T23:24:18.508Z,9.65
2022-08-22T23:29:22.680Z,16.92
2022-08-22T23:34:33.984Z,16.23
2022-08-22T23:39:39.372Z,23.25
2022-08-22T23:44:45.928Z,17.05
2022-08-22T23:49:51.099Z,11.03
2022-08-22T23:54:55.759Z,5.80
2022-08-22T23:59:59.903Z,23.67
